createdAt,value
2023-03-18T00:00:26.431Z,100.00
2023-03-18T00:02:54.413Z,100.00
2023-03-18T00:05:22.136Z,98.44
2023-03-18T00:07:50.414Z,95.37
2023-03-18T00:10:18.738Z,93.85
2023-03-18T00:12:47.100Z,92.98
2023-03-18T00:15:18.057Z,94.14
2023-03-18T00:17:48.594Z,93.30
2023-03-18T00:20:18.481Z,94.83
2023-03-18T00:22:46.717Z,95.78
2023-03-18T00:25:16.181Z,97.88
2023-03-18T00:27:43.720Z,96.94
2023-03-18T00:30:12.660Z,98.38
2023-03-18T00:32:41.611Z,100.00
2023-03-18T00:35:12.331Z,100.00
2023-03-18T00:37:40.129Z,100.00
2023-03-18T00:40:10.550Z,100.00
2023-03-18T00:42:47.419Z,100.00
2023-03-18T00:45:16.640Z,100.00
2023-03-18T00:47:44.889Z,100.00
2023-03-18T00:50:14.504Z,100.00
2023-03-18T00:52:42.637Z,100.00
2023-03-18T00:55:10.943Z,98.97
2023-03-18T00:57:38.716Z,99.77
2023-03-18T01:00:07.834Z,100.00
2023-03-18T01:02:35.860Z,100.00
2023-03-18T01:05:04.362Z,100.00
2023-03-18T01:07:33.670Z,100.00
2023-03-18T01:10:05.158Z,100.00
2023-03-18T01:12:36.191Z,100.00
2023-03-18T01:15:05.588Z,100.00
2023-03-18T01:17:34.046Z,100.00
2023-03-18T01:20:05.383Z,100.00
2023-03-18T01:22:35.383Z,100.00
2023-03-18T01:25:03.407Z,100.00
2023-03-18T01:27:37.867Z,100.00
2023-03-18T01:30:09.146Z,100.00
2023-03-18T01:32:38.287Z,100.00
2023-03-18T01:35:06.799Z,100.00
2023-03-18T01:37:37.755Z,100.00
2023-03-18T01:40:12.491Z,100.00
2023-03-18T01:42:41.491Z,100.00
2023-03-18T01:45:12.802Z,100.00
2023-03-18T01:47:45.283Z,100.00
2023-03-18T01:50:15.841Z,100.00
2023-03-18T01:52:46.575Z,100.00
2023-03-18T01:55:16.404Z,100.00
2023-03-18T01:57:45.821Z,100.00
2023-03-18T02:00:29.023Z,100.00
2023-03-18T02:02:58.288Z,100.00
2023-03-18T02:05:28.281Z,100.00
2023-03-18T02:07:58.124Z,100.00
2023-03-18T02:10:28.103Z,100.00
2023-03-18T02:13:01.669Z,100.00
2023-03-18T02:15:35.962Z,100.00
2023-03-18T02:18:06.457Z,100.00
2023-03-18T02:20:42.408Z,100.00
2023-03-18T02:23:23.907Z,100.00
2023-03-18T02:25:55.177Z,100.00
2023-03-18T02:28:26.522Z,100.00
2023-03-18T02:30:57.364Z,100.00
2023-03-18T02:33:30.521Z,100.00
2023-03-18T02:36:02.174Z,100.00
2023-03-18T02:38:33.209Z,100.00
2023-03-18T02:41:02.580Z,100.00
2023-03-18T02:43:42.806Z,100.00
2023-03-18T02:46:16.301Z,100.00
2023-03-18T02:48:46.144Z,100.00
2023-03-18T02:51:18.406Z,100.00
2023-03-18T02:53:47.154Z,100.00
2023-03-18T02:56:16.142Z,100.00
2023-03-18T02:58:46.733Z,100.00
2023-03-18T03:01:16.838Z,100.00
2023-03-18T03:03:45.491Z,100.00
2023-03-18T03:06:14.860Z,100.00
2023-03-18T03:08:43.259Z,100.00
2023-03-18T03:11:11.842Z,100.00
2023-03-18T03:13:41.628Z,100.00
2023-03-18T03:16:14.228Z,100.00
2023-03-18T03:18:42.872Z,100.00
2023-03-18T03:21:12.106Z,100.00
2023-03-18T03:23:41.056Z,100.00
2023-03-18T03:26:09.294Z,100.00
2023-03-18T03:28:37.291Z,100.00
2023-03-18T03:31:05.634Z,100.00
2023-03-18T03:33:36.685Z,100.00
2023-03-18T03:36:05.105Z,100.00
2023-03-18T03:38:33.831Z,100.00
2023-03-18T03:41:02.562Z,100.00
2023-03-18T03:43:30.894Z,100.00
2023-03-18T03:45:58.801Z,100.00
2023-03-18T03:48:26.884Z,100.00
2023-03-18T03:50:57.281Z,100.00
2023-03-18T03:53:25.867Z,100.00
2023-03-18T03:55:56.361Z,100.00
2023-03-18T03:58:25.590Z,100.00
2023-03-18T04:00:53.740Z,100.00
2023-03-18T04:03:25.638Z,100.00
2023-03-18T04:05:54.486Z,100.00
2023-03-18T04:08:27.323Z,100.00
2023-03-18T04:10:58.206Z,100.00
2023-03-18T04:13:27.247Z,100.00
2023-03-18T04:15:55.603Z,100.00
2023-03-18T04:18:23.583Z,100.00
2023-03-18T04:20:51.654Z,100.00
2023-03-18T04:23:38.179Z,100.00
2023-03-18T04:26:09.540Z,100.00
2023-03-18T04:28:39.177Z,100.00
2023-03-18T04:31:09.397Z,100.00
2023-03-18T04:33:38.124Z,100.00
2023-03-18T04:36:06.814Z,100.00
2023-03-18T04:38:35.167Z,100.00
2023-03-18T04:41:07.662Z,100.00
2023-03-18T04:43:36.384Z,100.00
2023-03-18T04:46:06.508Z,100.00
2023-03-18T04:48:36.006Z,100.00
2023-03-18T04:51:08.521Z,100.00
2023-03-18T04:53:37.630Z,100.00
2023-03-18T04:56:08.884Z,100.00
2023-03-18T04:58:48.869Z,100.00
2023-03-18T05:01:21.621Z,100.00
2023-03-18T05:03:50.521Z,100.00
2023-03-18T05:06:23.913Z,100.00
2023-03-18T05:09:07.591Z,100.00
2023-03-18T05:11:56.400Z,100.00
2023-03-18T05:14:31.335Z,100.00
2023-03-18T05:17:00.775Z,100.00
2023-03-18T05:19:29.967Z,100.00
2023-03-18T05:22:09.351Z,100.00
2023-03-18T05:24:37.871Z,100.00
2023-03-18T05:27:07.803Z,100.00
2023-03-18T05:29:42.021Z,100.00
2023-03-18T05:32:38.114Z,100.00
2023-03-18T05:35:10.507Z,100.00
2023-03-18T05:37:48.162Z,100.00
2023-03-18T05:40:18.177Z,100.00
2023-03-18T05:43:03.493Z,100.00
2023-03-18T05:45:40.351Z,100.00
2023-03-18T05:48:12.357Z,100.00
2023-03-18T05:50:49.416Z,100.00
2023-03-18T05:53:21.205Z,100.00
2023-03-18T05:55:54.466Z,100.00
2023-03-18T05:58:24.115Z,100.00
2023-03-18T06:01:00.348Z,100.00
2023-03-18T06:03:28.365Z,100.00
2023-03-18T06:05:56.450Z,100.00
2023-03-18T06:08:25.385Z,100.00
2023-03-18T06:10:54.594Z,100.00
2023-03-18T06:13:24.367Z,100.00
2023-03-18T06:16:00.276Z,100.00
2023-03-18T06:18:31.096Z,100.00
2023-03-18T06:20:59.181Z,100.00
2023-03-18T06:23:28.825Z,100.00
2023-03-18T06:25:56.724Z,100.00
2023-03-18T06:28:32.137Z,100.00
2023-03-18T06:31:04.120Z,100.00
2023-03-18T06:33:32.992Z,100.00
2023-03-18T06:36:02.366Z,100.00
2023-03-18T06:38:32.474Z,100.00
2023-03-18T06:41:01.941Z,100.00
2023-03-18T06:43:34.670Z,100.00
2023-03-18T06:46:02.698Z,100.00
2023-03-18T06:48:32.658Z,100.00
2023-03-18T06:51:01.953Z,100.00
2023-03-18T06:53:38.828Z,100.00
2023-03-18T06:56:08.036Z,100.00
2023-03-18T06:58:48.369Z,100.00
2023-03-18T07:01:19.593Z,100.00
2023-03-18T07:03:49.257Z,100.00
2023-03-18T07:06:18.799Z,100.00
2023-03-18T07:08:50.107Z,100.00
2023-03-18T07:11:18.711Z,100.00
2023-03-18T07:13:49.987Z,100.00
2023-03-18T07:16:24.747Z,100.00
2023-03-18T07:18:52.636Z,100.00
2023-03-18T07:21:20.752Z,100.00
2023-03-18T07:23:49.499Z,100.00
2023-03-18T07:26:20.424Z,100.00
2023-03-18T07:28:49.870Z,90.78
2023-03-18T07:31:17.827Z,84.09
2023-03-18T07:33:46.525Z,76.90
2023-03-18T07:36:15.297Z,72.13
2023-03-18T07:38:43.063Z,71.18
2023-03-18T07:41:11.305Z,65.74
2023-03-18T07:43:40.058Z,66.31
2023-03-18T07:46:09.395Z,65.09
2023-03-18T07:48:37.148Z,63.66
2023-03-18T07:51:05.256Z,62.44
2023-03-18T07:53:33.748Z,57.64
2023-03-18T07:56:02.152Z,59.07
2023-03-18T07:58:30.443Z,55.74
2023-03-18T08:00:59.891Z,57.36
2023-03-18T08:03:29.321Z,57.92
2023-03-18T08:05:57.883Z,57.77
2023-03-18T08:08:25.828Z,56.51
2023-03-18T08:10:57.917Z,53.90
2023-03-18T08:13:26.242Z,55.77
2023-03-18T08:15:54.140Z,58.17
2023-03-18T08:18:22.146Z,61.92
2023-03-18T08:20:53.590Z,65.54
2023-03-18T08:23:21.621Z,68.46
2023-03-18T08:25:50.891Z,61.32
2023-03-18T08:28:21.579Z,55.35
2023-03-18T08:30:49.364Z,57.22
2023-03-18T08:33:17.964Z,54.26
2023-03-18T08:35:46.650Z,57.40
2023-03-18T08:38:16.030Z,55.07
2023-03-18T08:40:43.815Z,52.56
2023-03-18T08:43:14.157Z,55.09
2023-03-18T08:45:44.898Z,53.79
2023-03-18T08:48:13.230Z,56.23
2023-03-18T08:50:41.427Z,56.79
2023-03-18T08:53:09.621Z,51.10
2023-03-18T08:55:40.313Z,50.46
2023-03-18T08:58:08.486Z,51.46
2023-03-18T09:00:37.837Z,53.11
2023-03-18T09:03:06.358Z,50.07
2023-03-18T09:05:36.358Z,51.05
2023-03-18T09:08:05.250Z,48.65
2023-03-18T09:10:33.335Z,49.88
2023-03-18T09:13:06.173Z,47.57
2023-03-18T09:15:35.395Z,48.55
2023-03-18T09:18:12.024Z,45.92
2023-03-18T09:20:40.183Z,45.06
2023-03-18T09:23:08.363Z,45.38
2023-03-18T09:25:36.621Z,44.60
2023-03-18T09:28:06.099Z,44.42
2023-03-18T09:30:34.050Z,44.29
2023-03-18T09:33:02.685Z,43.52
2023-03-18T09:35:31.248Z,44.90
2023-03-18T09:37:59.539Z,41.57
2023-03-18T09:40:28.602Z,39.50
2023-03-18T09:43:15.913Z,40.45
2023-03-18T09:45:48.479Z,38.05
2023-03-18T09:48:31.953Z,37.69
2023-03-18T09:51:04.263Z,38.24
2023-03-18T09:53:37.707Z,36.79
2023-03-18T09:56:07.665Z,36.68
2023-03-18T09:58:47.365Z,37.30
2023-03-18T10:01:16.794Z,34.63
2023-03-18T10:03:48.640Z,35.07
2023-03-18T10:06:18.231Z,34.56
2023-03-18T10:08:48.992Z,32.64
2023-03-18T10:11:22.882Z,32.15
2023-03-18T10:13:57.768Z,29.11
2023-03-18T10:16:37.983Z,28.48
2023-03-18T10:19:06.506Z,27.75
2023-03-18T10:21:41.517Z,29.26
2023-03-18T10:24:19.307Z,29.95
2023-03-18T10:26:48.801Z,26.38
2023-03-18T10:29:28.691Z,26.05
2023-03-18T10:32:03.803Z,27.70
2023-03-18T10:34:36.593Z,30.05
2023-03-18T10:37:06.909Z,30.29
2023-03-18T10:39:36.466Z,31.01
2023-03-18T10:42:19.434Z,31.43
2023-03-18T10:44:48.852Z,27.85
2023-03-18T10:47:21.156Z,26.65
2023-03-18T10:49:52.448Z,25.73
2023-03-18T10:52:23.887Z,25.67
2023-03-18T10:54:52.651Z,25.39
2023-03-18T10:57:21.479Z,22.18
2023-03-18T10:59:52.110Z,22.76
2023-03-18T11:02:21.644Z,24.38
2023-03-18T11:04:50.922Z,27.41
2023-03-18T11:07:21.362Z,26.09
2023-03-18T11:09:49.134Z,26.78
2023-03-18T11:12:19.399Z,25.57
2023-03-18T11:14:53.486Z,23.79
2023-03-18T11:17:23.365Z,29.81
2023-03-18T11:20:00.788Z,28.48
2023-03-18T11:22:32.086Z,28.81
2023-03-18T11:25:04.613Z,29.23
2023-03-18T11:27:38.832Z,30.17
2023-03-18T11:30:24.228Z,30.16
2023-03-18T11:32:58.690Z,29.33
2023-03-18T11:35:42.608Z,27.84
2023-03-18T11:38:15.474Z,25.85
2023-03-18T11:40:43.787Z,29.39
2023-03-18T11:43:16.769Z,34.04
2023-03-18T11:45:48.360Z,31.92
2023-03-18T11:48:18.094Z,27.04
2023-03-18T11:51:02.289Z,21.35
2023-03-18T11:53:35.363Z,18.80
2023-03-18T11:56:07.780Z,19.35
2023-03-18T11:58:54.735Z,19.46
2023-03-18T12:01:32.888Z,22.08
2023-03-18T12:04:08.360Z,31.91
2023-03-18T12:06:39.384Z,34.04
2023-03-18T12:09:12.250Z,27.67
2023-03-18T12:11:47.578Z,28.38
2023-03-18T12:14:18.208Z,28.50
2023-03-18T12:16:53.355Z,25.67
2023-03-18T12:19:32.138Z,22.25
2023-03-18T12:22:10.002Z,23.55
2023-03-18T12:24:48.993Z,23.47
2023-03-18T12:27:20.771Z,23.55
2023-03-18T12:29:54.930Z,21.54
2023-03-18T12:32:28.398Z,28.46
2023-03-18T12:35:02.785Z,33.89
2023-03-18T12:37:36.123Z,38.11
2023-03-18T12:40:18.900Z,41.15
2023-03-18T12:42:53.160Z,37.83
2023-03-18T12:45:22.533Z,37.48
2023-03-18T12:47:56.196Z,33.90
2023-03-18T12:50:27.266Z,35.87
2023-03-18T12:52:57.623Z,34.18
2023-03-18T12:55:29.978Z,32.50
2023-03-18T12:58:01.256Z,30.36
2023-03-18T13:00:32.087Z,32.54
2023-03-18T13:03:07.461Z,39.67
2023-03-18T13:05:43.251Z,40.92
2023-03-18T13:08:31.854Z,41.14
2023-03-18T13:11:04.977Z,40.11
2023-03-18T13:13:35.880Z,41.53
2023-03-18T13:16:05.893Z,42.75
2023-03-18T13:18:39.537Z,41.03
2023-03-18T13:21:08.597Z,42.74
2023-03-18T13:23:48.900Z,40.29
2023-03-18T13:26:22.167Z,37.50
2023-03-18T13:28:56.861Z,34.80
2023-03-18T13:31:31.644Z,36.69
2023-03-18T13:34:21.428Z,38.33
2023-03-18T13:37:07.314Z,35.08
2023-03-18T13:39:48.234Z,31.24
2023-03-18T13:42:28.735Z,29.85
2023-03-18T13:44:59.824Z,29.70
2023-03-18T13:47:31.074Z,31.22
2023-03-18T13:50:05.112Z,34.24
2023-03-18T13:52:37.572Z,34.95
2023-03-18T13:55:07.714Z,37.57
2023-03-18T13:57:37.129Z,35.03
2023-03-18T14:00:28.810Z,29.62
2023-03-18T14:03:05.010Z,31.40
2023-03-18T14:05:41.092Z,29.04
2023-03-18T14:08:28.235Z,26.52
2023-03-18T14:11:10.954Z,25.82
2023-03-18T14:13:38.764Z,27.76
2023-03-18T14:16:11.004Z,31.05
2023-03-18T14:18:39.012Z,34.95
2023-03-18T14:21:24.924Z,37.46
2023-03-18T14:24:02.400Z,34.50
2023-03-18T14:26:31.521Z,31.86
2023-03-18T14:29:16.128Z,24.60
2023-03-18T14:31:58.844Z,23.14
2023-03-18T14:34:27.751Z,21.75
2023-03-18T14:37:14.572Z,21.75
2023-03-18T14:39:48.771Z,20.46
2023-03-18T14:42:24.535Z,21.54
2023-03-18T14:44:55.030Z,25.23
2023-03-18T14:47:38.085Z,23.88
2023-03-18T14:50:08.420Z,24.88
2023-03-18T14:52:38.282Z,22.77
2023-03-18T14:55:13.850Z,23.30
2023-03-18T14:57:42.646Z,23.58
2023-03-18T15:00:14.711Z,25.11
2023-03-18T15:02:43.667Z,27.51
2023-03-18T15:05:14.964Z,32.68
2023-03-18T15:07:44.171Z,36.15
2023-03-18T15:10:15.308Z,36.50
2023-03-18T15:12:43.058Z,34.25
2023-03-18T15:15:14.894Z,34.35
2023-03-18T15:17:46.663Z,34.12
2023-03-18T15:20:15.510Z,34.96
2023-03-18T15:22:44.482Z,34.16
2023-03-18T15:25:17.789Z,35.01
2023-03-18T15:27:45.885Z,36.04
2023-03-18T15:30:35.107Z,37.37
2023-03-18T15:33:05.010Z,38.36
2023-03-18T15:35:33.936Z,38.12
2023-03-18T15:38:07.975Z,38.73
2023-03-18T15:40:54.811Z,38.43
2023-03-18T15:43:29.254Z,37.84
2023-03-18T15:45:58.837Z,39.15
2023-03-18T15:48:32.124Z,38.95
2023-03-18T15:51:21.854Z,39.72
2023-03-18T15:54:04.763Z,38.45
2023-03-18T15:56:44.329Z,37.92
2023-03-18T15:59:16.030Z,38.30
2023-03-18T16:01:44.409Z,38.26
2023-03-18T16:04:14.867Z,37.77
2023-03-18T16:06:43.393Z,37.69
2023-03-18T16:09:15.684Z,37.04
2023-03-18T16:11:46.194Z,36.96
2023-03-18T16:14:16.522Z,35.41
2023-03-18T16:16:44.439Z,35.33
2023-03-18T16:19:15.546Z,36.09
2023-03-18T16:21:43.986Z,36.00
2023-03-18T16:24:11.755Z,36.44
2023-03-18T16:26:48.997Z,36.20
2023-03-18T16:29:25.347Z,36.53
2023-03-18T16:31:58.243Z,35.26
2023-03-18T16:34:26.364Z,34.22
2023-03-18T16:37:07.748Z,32.87
2023-03-18T16:39:36.181Z,31.54
2023-03-18T16:42:08.702Z,29.26
2023-03-18T16:44:45.449Z,28.64
2023-03-18T16:47:21.315Z,28.94
2023-03-18T16:49:51.536Z,30.79
2023-03-18T16:52:19.582Z,32.14
2023-03-18T16:54:49.961Z,32.86
2023-03-18T16:57:19.643Z,33.18
2023-03-18T16:59:50.877Z,33.23
2023-03-18T17:02:30.016Z,33.71
2023-03-18T17:04:58.166Z,34.55
2023-03-18T17:07:28.625Z,38.28
2023-03-18T17:09:56.996Z,41.68
2023-03-18T17:12:26.266Z,42.72
2023-03-18T17:14:56.709Z,43.65
2023-03-18T17:17:28.746Z,47.05
2023-03-18T17:19:57.572Z,50.46
2023-03-18T17:22:26.975Z,53.02
2023-03-18T17:24:55.967Z,55.45
2023-03-18T17:27:25.705Z,56.82
2023-03-18T17:30:04.788Z,57.27
2023-03-18T17:32:34.353Z,56.65
2023-03-18T17:35:02.079Z,59.01
2023-03-18T17:37:30.552Z,59.31
2023-03-18T17:40:01.303Z,58.76
2023-03-18T17:42:30.414Z,60.53
2023-03-18T17:45:01.255Z,62.53
2023-03-18T17:47:31.721Z,62.23
2023-03-18T17:50:02.273Z,62.93
2023-03-18T17:52:30.590Z,65.29
2023-03-18T17:54:58.493Z,68.77
2023-03-18T17:57:27.108Z,68.35
2023-03-18T17:59:54.997Z,64.73
2023-03-18T18:05:17.842Z,67.53
2023-03-18T18:07:50.731Z,67.13
2023-03-18T18:10:20.852Z,66.87
2023-03-18T18:12:50.059Z,66.83
2023-03-18T18:15:23.836Z,65.87
2023-03-18T18:17:53.662Z,66.13
2023-03-18T18:20:22.713Z,66.49
2023-03-18T18:22:51.784Z,67.93
2023-03-18T18:25:21.628Z,67.86
2023-03-18T18:27:50.140Z,72.06
2023-03-18T18:30:19.341Z,75.99
2023-03-18T18:32:47.312Z,76.72
2023-03-18T18:35:18.034Z,77.51
2023-03-18T18:37:45.912Z,78.06
2023-03-18T18:40:15.357Z,78.08
2023-03-18T18:42:43.986Z,79.21
2023-03-18T18:45:18.279Z,80.80
2023-03-18T18:47:46.616Z,80.66
2023-03-18T18:50:16.960Z,81.26
2023-03-18T18:52:46.565Z,80.67
2023-03-18T18:55:14.336Z,79.32
2023-03-18T18:57:43.090Z,78.07
2023-03-18T19:00:17.441Z,77.94
2023-03-18T19:02:46.983Z,77.23
2023-03-18T19:05:16.531Z,77.30
2023-03-18T19:07:46.824Z,77.75
2023-03-18T19:10:23.781Z,78.88
2023-03-18T19:12:52.453Z,81.38
2023-03-18T19:15:21.783Z,83.51
2023-03-18T19:17:49.692Z,91.05
2023-03-18T19:20:27.153Z,94.01
2023-03-18T19:22:57.575Z,96.17
2023-03-18T19:25:27.219Z,97.44
2023-03-18T19:27:55.716Z,96.86
2023-03-18T19:30:24.795Z,96.90
2023-03-18T19:32:52.655Z,98.18
2023-03-18T19:35:20.799Z,96.88
2023-03-18T19:37:49.502Z,95.98
2023-03-18T19:40:41.176Z,95.59
2023-03-18T19:43:15.496Z,94.37
2023-03-18T19:45:44.664Z,93.59
2023-03-18T19:48:24.218Z,92.19
2023-03-18T19:50:57.962Z,94.31
2023-03-18T19:53:28.803Z,98.54
2023-03-18T19:56:06.370Z,96.92
2023-03-18T19:58:34.792Z,95.05
2023-03-18T20:01:04.422Z,92.63
2023-03-18T20:03:33.941Z,93.39
2023-03-18T20:06:02.106Z,92.97
2023-03-18T20:08:30.269Z,92.97
2023-03-18T20:11:00.071Z,89.72
2023-03-18T20:13:28.953Z,88.53
2023-03-18T20:15:56.890Z,88.27
2023-03-18T20:18:27.335Z,85.71
2023-03-18T20:20:56.182Z,84.26
2023-03-18T20:23:26.442Z,84.35
2023-03-18T20:25:54.902Z,83.79
2023-03-18T20:28:25.833Z,85.03
2023-03-18T20:30:56.255Z,85.99
2023-03-18T20:33:23.971Z,86.25
2023-03-18T20:35:53.590Z,87.06
2023-03-18T20:38:26.440Z,89.17
2023-03-18T20:40:57.883Z,90.42
2023-03-18T20:43:30.858Z,90.93
2023-03-18T20:46:00.855Z,90.06
2023-03-18T20:48:29.410Z,88.69
2023-03-18T20:50:57.350Z,88.10
2023-03-18T20:53:26.271Z,87.35
2023-03-18T20:55:54.143Z,85.25
2023-03-18T20:58:23.030Z,83.51
2023-03-18T21:00:53.181Z,83.82
2023-03-18T21:03:25.261Z,83.18
2023-03-18T21:05:56.174Z,82.84
2023-03-18T21:08:25.782Z,83.28
2023-03-18T21:10:53.861Z,86.14
2023-03-18T21:13:27.160Z,86.64
2023-03-18T21:15:56.554Z,87.05
2023-03-18T21:18:24.612Z,87.25
2023-03-18T21:20:52.281Z,86.57
2023-03-18T21:23:21.271Z,87.01
2023-03-18T21:25:49.620Z,88.36
2023-03-18T21:28:21.438Z,88.94
2023-03-18T21:30:50.353Z,88.60
2023-03-18T21:33:23.749Z,87.29
2023-03-18T21:35:52.490Z,88.81
2023-03-18T21:38:20.623Z,90.90
2023-03-18T21:40:48.934Z,89.94
2023-03-18T21:43:25.369Z,88.58
2023-03-18T21:45:53.348Z,86.90
2023-03-18T21:48:22.927Z,86.74
2023-03-18T21:50:50.809Z,87.01
2023-03-18T21:53:19.354Z,86.89
2023-03-18T21:55:47.288Z,85.88
2023-03-18T21:58:16.900Z,84.40
2023-03-18T22:00:45.052Z,84.51
2023-03-18T22:03:19.510Z,85.23
2023-03-18T22:05:51.660Z,86.37
2023-03-18T22:08:21.061Z,85.58
2023-03-18T22:10:50.920Z,84.96
2023-03-18T22:13:20.740Z,85.01
2023-03-18T22:15:49.884Z,84.04
2023-03-18T22:18:17.918Z,83.83
2023-03-18T22:20:46.845Z,85.00
2023-03-18T22:23:21.111Z,86.13
2023-03-18T22:25:50.065Z,85.59
2023-03-18T22:28:18.388Z,85.99
2023-03-18T22:30:47.438Z,85.42
2023-03-18T22:33:20.201Z,86.42
2023-03-18T22:35:48.124Z,86.86
2023-03-18T22:38:17.105Z,88.06
2023-03-18T22:40:47.205Z,87.49
2023-03-18T22:43:23.418Z,87.93
2023-03-18T22:45:51.213Z,88.66
2023-03-18T22:48:19.230Z,88.48
2023-03-18T22:50:47.154Z,85.83
2023-03-18T22:53:19.356Z,88.38
2023-03-18T22:55:49.500Z,91.76
2023-03-18T22:58:19.316Z,93.94
2023-03-18T23:00:47.609Z,94.90
2023-03-18T23:03:18.738Z,95.47
2023-03-18T23:05:47.144Z,95.99
2023-03-18T23:08:15.535Z,95.43
2023-03-18T23:10:45.105Z,95.67
2023-03-18T23:13:17.196Z,94.16
2023-03-18T23:15:46.138Z,92.52
2023-03-18T23:18:15.637Z,91.52
2023-03-18T23:20:43.862Z,90.72
2023-03-18T23:23:11.818Z,89.82
2023-03-18T23:25:39.601Z,89.13
2023-03-18T23:28:07.793Z,88.04
2023-03-18T23:30:38.930Z,87.10
2023-03-18T23:33:07.253Z,87.23
2023-03-18T23:35:36.492Z,89.77
2023-03-18T23:38:04.821Z,92.35
2023-03-18T23:40:32.614Z,92.03
2023-03-18T23:43:00.368Z,90.79
2023-03-18T23:45:28.434Z,90.04
2023-03-18T23:47:57.640Z,89.28
2023-03-18T23:50:25.562Z,90.70
2023-03-18T23:52:55.151Z,91.79
2023-03-18T23:55:33.965Z,93.06
2023-03-18T23:58:03.052Z,93.51
